createdAt,value
2023-03-17T00:00:27.274Z,31.66
2023-03-17T00:00:57.353Z,31.66
2023-03-17T00:01:27.436Z,31.69
2023-03-17T00:01:57.513Z,31.66
2023-03-17T00:02:27.613Z,31.61
2023-03-17T00:02:57.706Z,31.61
2023-03-17T00:03:27.836Z,31.60
2023-03-17T00:03:57.957Z,31.59
2023-03-17T00:04:27.939Z,31.58
2023-03-17T00:04:58.027Z,31.63
2023-03-17T00:05:28.108Z,31.61
2023-03-17T00:05:58.195Z,31.63
2023-03-17T00:06:28.290Z,31.63
2023-03-17T00:06:58.363Z,31.65
2023-03-17T00:07:28.417Z,31.57
2023-03-17T00:07:58.467Z,31.59
2023-03-17T00:08:28.513Z,31.59
2023-03-17T00:08:58.545Z,31.53
2023-03-17T00:09:28.584Z,31.48
2023-03-17T00:09:58.623Z,31.45
2023-03-17T00:10:29.030Z,31.47
2023-03-17T00:10:58.782Z,31.51
2023-03-17T00:11:28.838Z,31.53
2023-03-17T00:11:58.861Z,31.57
2023-03-17T00:12:28.890Z,31.50
2023-03-17T00:12:58.969Z,31.57
2023-03-17T00:13:29.019Z,31.59
2023-03-17T00:13:59.060Z,31.59
2023-03-17T00:14:29.125Z,31.51
2023-03-17T00:14:59.180Z,31.50
2023-03-17T00:15:29.217Z,31.51
2023-03-17T00:15:59.324Z,31.48
2023-03-17T00:16:29.349Z,31.53
2023-03-17T00:16:59.412Z,31.51
2023-03-17T00:17:29.492Z,31.49
2023-03-17T00:17:59.578Z,31.47
2023-03-17T00:18:29.666Z,31.44
2023-03-17T00:18:59.787Z,31.37
2023-03-17T00:19:29.975Z,31.38
2023-03-17T00:19:59.965Z,31.41
2023-03-17T00:20:30.210Z,31.32
2023-03-17T00:21:00.099Z,31.38
2023-03-17T00:21:30.186Z,31.35
2023-03-17T00:22:00.266Z,31.33
2023-03-17T00:22:30.353Z,31.36
2023-03-17T00:23:00.432Z,31.39
2023-03-17T00:23:30.550Z,31.43
2023-03-17T00:24:00.628Z,31.38
2023-03-17T00:24:30.704Z,31.43
2023-03-17T00:25:00.800Z,31.37
2023-03-17T00:25:30.877Z,31.37
2023-03-17T00:26:00.971Z,31.35
2023-03-17T00:26:31.056Z,31.38
2023-03-17T00:27:01.148Z,31.33
2023-03-17T00:27:31.225Z,31.33
2023-03-17T00:28:01.316Z,31.41
2023-03-17T00:28:31.412Z,31.32
2023-03-17T00:29:01.491Z,31.29
2023-03-17T00:29:31.578Z,31.29
2023-03-17T00:30:01.663Z,31.36
2023-03-17T00:30:32.302Z,31.34
2023-03-17T00:31:01.806Z,31.36
2023-03-17T00:31:31.907Z,31.31
2023-03-17T00:32:01.877Z,31.36
2023-03-17T00:32:32.019Z,31.36
2023-03-17T00:33:02.023Z,31.42
2023-03-17T00:33:32.004Z,31.37
2023-03-17T00:34:02.109Z,31.41
2023-03-17T00:34:32.163Z,31.55
2023-03-17T00:35:02.245Z,31.46
2023-03-17T00:35:32.383Z,31.53
2023-03-17T00:36:02.368Z,31.47
2023-03-17T00:36:32.356Z,31.58
2023-03-17T00:37:02.429Z,31.62
2023-03-17T00:37:32.512Z,31.64
2023-03-17T00:38:02.597Z,31.59
2023-03-17T00:38:32.705Z,31.58
2023-03-17T00:39:02.766Z,31.56
2023-03-17T00:39:32.849Z,31.63
2023-03-17T00:40:02.940Z,31.63
2023-03-17T00:40:33.020Z,31.72
2023-03-17T00:41:03.101Z,31.69
2023-03-17T00:41:33.182Z,31.72
2023-03-17T00:42:03.268Z,31.75
2023-03-17T00:42:33.354Z,31.73
2023-03-17T00:43:03.435Z,31.78
2023-03-17T00:43:33.543Z,31.76
2023-03-17T00:44:03.637Z,31.74
2023-03-17T00:44:33.722Z,31.80
2023-03-17T00:45:03.808Z,31.77
2023-03-17T00:45:33.892Z,31.86
2023-03-17T00:46:03.981Z,31.86
2023-03-17T00:46:34.183Z,31.85
2023-03-17T00:47:04.244Z,31.88
2023-03-17T00:47:34.241Z,31.79
2023-03-17T00:48:04.325Z,31.79
2023-03-17T00:48:34.418Z,31.77
2023-03-17T00:49:04.525Z,31.82
2023-03-17T00:49:34.574Z,31.84
2023-03-17T00:50:04.652Z,31.88
2023-03-17T00:50:34.734Z,31.86
2023-03-17T00:51:04.819Z,31.86
2023-03-17T00:51:34.917Z,31.83
2023-03-17T00:52:04.982Z,31.88
2023-03-17T00:52:35.061Z,31.89
2023-03-17T00:53:05.153Z,31.91
2023-03-17T00:53:35.261Z,31.86
2023-03-17T00:54:05.341Z,31.98
2023-03-17T00:54:35.346Z,31.95
2023-03-17T00:55:05.435Z,31.91
2023-03-17T00:55:35.516Z,31.95
2023-03-17T00:56:05.601Z,31.98
2023-03-17T00:56:35.669Z,31.92
2023-03-17T00:57:05.758Z,31.97
2023-03-17T00:57:35.836Z,31.91
2023-03-17T00:58:05.922Z,31.88
2023-03-17T00:58:36.011Z,31.88
2023-03-17T00:59:06.089Z,31.89
2023-03-17T00:59:36.182Z,31.85
2023-03-17T01:00:06.264Z,31.88
2023-03-17T01:00:36.366Z,31.86
2023-03-17T01:01:06.455Z,31.88
2023-03-17T01:01:36.566Z,31.94
2023-03-17T01:02:06.676Z,31.88
2023-03-17T01:02:36.724Z,31.92
2023-03-17T01:03:06.808Z,31.86
2023-03-17T01:03:36.919Z,31.91
2023-03-17T01:04:07.024Z,31.88
2023-03-17T01:04:37.090Z,31.86
2023-03-17T01:05:07.209Z,31.88
2023-03-17T01:05:37.166Z,31.88
2023-03-17T01:06:07.176Z,31.89
2023-03-17T01:06:37.275Z,31.83
2023-03-17T01:07:07.309Z,31.88
2023-03-17T01:07:37.367Z,31.88
2023-03-17T01:08:07.400Z,31.82
2023-03-17T01:08:37.463Z,31.85
2023-03-17T01:09:07.549Z,31.91
2023-03-17T01:09:37.557Z,31.91
2023-03-17T01:10:07.586Z,31.93
2023-03-17T01:10:37.632Z,31.86
2023-03-17T01:11:07.695Z,31.89
2023-03-17T01:11:37.713Z,31.82
2023-03-17T01:12:07.755Z,31.89
2023-03-17T01:12:37.781Z,31.83
2023-03-17T01:13:07.831Z,31.82
2023-03-17T01:13:37.927Z,31.81
2023-03-17T01:14:07.968Z,31.85
2023-03-17T01:14:38.181Z,31.85
2023-03-17T01:15:08.078Z,31.84
2023-03-17T01:15:38.122Z,31.83
2023-03-17T01:16:08.201Z,31.85
2023-03-17T01:16:38.287Z,31.84
2023-03-17T01:17:08.351Z,31.84
2023-03-17T01:17:38.430Z,31.91
2023-03-17T01:18:08.515Z,31.82
2023-03-17T01:18:38.670Z,31.79
2023-03-17T01:19:08.664Z,31.85
2023-03-17T01:19:38.728Z,31.88
2023-03-17T01:20:08.806Z,31.83
2023-03-17T01:20:38.891Z,31.89
2023-03-17T01:21:08.982Z,31.85
2023-03-17T01:21:39.068Z,31.85
2023-03-17T01:22:09.137Z,31.86
2023-03-17T01:22:39.220Z,31.88
2023-03-17T01:23:09.311Z,31.86
2023-03-17T01:23:39.387Z,31.82
2023-03-17T01:24:09.472Z,31.92
2023-03-17T01:24:39.514Z,31.86
2023-03-17T01:25:09.603Z,31.85
2023-03-17T01:25:39.693Z,31.90
2023-03-17T01:26:09.761Z,31.85
2023-03-17T01:26:39.848Z,31.88
2023-03-17T01:27:09.935Z,31.83
2023-03-17T01:27:40.021Z,31.83
2023-03-17T01:28:10.092Z,31.85
2023-03-17T01:28:40.176Z,31.81
2023-03-17T01:29:10.282Z,31.81
2023-03-17T01:29:40.357Z,31.79
2023-03-17T01:30:10.432Z,31.84
2023-03-17T01:30:40.511Z,31.77
2023-03-17T01:31:10.696Z,31.78
2023-03-17T01:31:40.688Z,31.77
2023-03-17T01:32:10.749Z,31.78
2023-03-17T01:32:40.857Z,31.82
2023-03-17T01:33:10.933Z,31.76
2023-03-17T01:33:41.041Z,31.78
2023-03-17T01:34:11.116Z,31.78
2023-03-17T01:34:41.246Z,31.75
2023-03-17T01:35:11.298Z,31.75
2023-03-17T01:35:41.538Z,31.76
2023-03-17T01:36:11.513Z,31.79
2023-03-17T01:36:41.462Z,31.81
2023-03-17T01:37:11.543Z,31.69
2023-03-17T01:37:41.624Z,31.74
2023-03-17T01:38:11.749Z,31.70
2023-03-17T01:38:41.800Z,31.70
2023-03-17T01:39:11.889Z,31.69
2023-03-17T01:39:41.985Z,31.71
2023-03-17T01:40:12.055Z,31.69
2023-03-17T01:40:42.141Z,31.72
2023-03-17T01:41:12.219Z,31.75
2023-03-17T01:41:42.299Z,31.73
2023-03-17T01:42:12.383Z,31.72
2023-03-17T01:42:42.464Z,31.69
2023-03-17T01:43:12.550Z,31.68
2023-03-17T01:43:42.630Z,31.66
2023-03-17T01:44:12.749Z,31.72
2023-03-17T01:44:42.837Z,31.61
2023-03-17T01:45:12.906Z,31.58
2023-03-17T01:45:43.062Z,31.57
2023-03-17T01:46:13.090Z,31.56
2023-03-17T01:46:43.051Z,31.58
2023-03-17T01:47:13.142Z,31.57
2023-03-17T01:47:43.227Z,31.66
2023-03-17T01:48:13.311Z,31.60
2023-03-17T01:48:43.408Z,31.56
2023-03-17T01:49:13.501Z,31.61
2023-03-17T01:49:43.600Z,31.63
2023-03-17T01:50:13.652Z,31.60
2023-03-17T01:50:43.755Z,31.58
2023-03-17T01:51:13.840Z,31.65
2023-03-17T01:51:43.918Z,31.56
2023-03-17T01:52:13.996Z,31.58
2023-03-17T01:52:44.086Z,31.65
2023-03-17T01:53:14.177Z,31.57
2023-03-17T01:53:44.253Z,31.60
2023-03-17T01:54:14.333Z,31.59
2023-03-17T01:54:44.416Z,31.60
2023-03-17T01:55:14.517Z,31.59
2023-03-17T01:55:44.599Z,31.57
2023-03-17T01:56:14.677Z,31.61
2023-03-17T01:56:44.780Z,31.60
2023-03-17T01:57:14.856Z,31.60
2023-03-17T01:57:44.942Z,31.53
2023-03-17T01:58:15.028Z,31.50
2023-03-17T01:58:45.112Z,31.48
2023-03-17T01:59:15.198Z,31.42
2023-03-17T01:59:45.289Z,31.61
2023-03-17T02:00:15.366Z,31.52
2023-03-17T02:00:45.564Z,31.52
2023-03-17T02:01:15.498Z,31.51
2023-03-17T02:01:45.457Z,31.51
2023-03-17T02:02:15.549Z,31.56
2023-03-17T02:02:45.632Z,31.58
2023-03-17T02:03:15.702Z,31.57
2023-03-17T02:03:45.902Z,31.55
2023-03-17T02:04:16.127Z,31.63
2023-03-17T02:04:46.019Z,31.61
2023-03-17T02:05:16.078Z,31.57
2023-03-17T02:05:46.158Z,31.47
2023-03-17T02:06:16.265Z,31.48
2023-03-17T02:06:57.446Z,31.59
2023-03-17T02:07:16.421Z,31.54
2023-03-17T02:07:46.522Z,31.58
2023-03-17T02:08:16.545Z,31.57
2023-03-17T02:08:46.502Z,31.60
2023-03-17T02:09:16.577Z,31.57
2023-03-17T02:09:46.664Z,31.57
2023-03-17T02:10:16.741Z,31.56
2023-03-17T02:10:46.832Z,31.54
2023-03-17T02:11:16.930Z,31.52
2023-03-17T02:11:46.998Z,31.52
2023-03-17T02:12:17.082Z,31.51
2023-03-17T02:12:47.202Z,31.53
2023-03-17T02:13:17.169Z,31.53
2023-03-17T02:13:47.258Z,31.54
2023-03-17T02:14:17.352Z,31.50
2023-03-17T02:14:47.431Z,31.54
2023-03-17T02:15:17.518Z,31.45
2023-03-17T02:15:47.606Z,31.45
2023-03-17T02:16:17.772Z,31.50
2023-03-17T02:16:47.810Z,31.50
2023-03-17T02:17:17.799Z,31.47
2023-03-17T02:17:47.832Z,31.53
2023-03-17T02:18:17.831Z,31.50
2023-03-17T02:18:47.854Z,31.51
2023-03-17T02:19:17.858Z,31.60
2023-03-17T02:19:47.870Z,31.50
2023-03-17T02:20:17.894Z,31.54
2023-03-17T02:20:47.880Z,31.54
2023-03-17T02:21:17.885Z,31.53
2023-03-17T02:21:47.888Z,31.51
2023-03-17T02:22:17.893Z,31.44
2023-03-17T02:22:47.952Z,31.45
2023-03-17T02:23:17.963Z,31.44
2023-03-17T02:23:47.959Z,31.50
2023-03-17T02:24:17.985Z,31.45
2023-03-17T02:24:47.998Z,31.41
2023-03-17T02:25:17.989Z,31.44
2023-03-17T02:25:48.000Z,31.48
2023-03-17T02:26:18.026Z,31.38
2023-03-17T02:26:48.020Z,31.41
2023-03-17T02:27:18.026Z,31.41
2023-03-17T02:27:48.040Z,31.42
2023-03-17T02:28:18.042Z,31.41
2023-03-17T02:28:48.047Z,31.48
2023-03-17T02:29:18.063Z,31.45
2023-03-17T02:29:48.068Z,31.41
2023-03-17T02:30:18.077Z,31.42
2023-03-17T02:30:48.113Z,31.41
2023-03-17T02:31:18.162Z,31.35
2023-03-17T02:31:48.148Z,31.38
2023-03-17T02:32:18.203Z,31.33
2023-03-17T02:32:48.215Z,31.42
2023-03-17T02:33:18.224Z,31.39
2023-03-17T02:33:48.217Z,31.39
2023-03-17T02:34:18.230Z,31.42
2023-03-17T02:34:48.229Z,31.45
2023-03-17T02:35:18.237Z,31.37
2023-03-17T02:35:48.277Z,31.38
2023-03-17T02:36:18.296Z,31.47
2023-03-17T02:36:48.316Z,31.40
2023-03-17T02:37:18.354Z,31.39
2023-03-17T02:37:48.343Z,31.39
2023-03-17T02:38:18.348Z,31.45
2023-03-17T02:38:48.352Z,31.41
2023-03-17T02:39:18.356Z,31.45
2023-03-17T02:39:48.366Z,31.42
2023-03-17T02:40:18.367Z,31.37
2023-03-17T02:40:48.386Z,31.44
2023-03-17T02:41:18.384Z,31.48
2023-03-17T02:41:48.407Z,31.41
2023-03-17T02:42:18.410Z,31.32
2023-03-17T02:42:48.497Z,31.43
2023-03-17T02:43:18.508Z,31.45
2023-03-17T02:43:48.513Z,31.47
2023-03-17T02:44:18.526Z,31.39
2023-03-17T02:44:48.567Z,31.41
2023-03-17T02:45:18.554Z,31.37
2023-03-17T02:45:48.611Z,31.42
2023-03-17T02:46:18.718Z,31.35
2023-03-17T02:46:48.706Z,31.33
2023-03-17T02:47:18.712Z,31.44
2023-03-17T02:47:48.743Z,31.34
2023-03-17T02:48:18.753Z,31.38
2023-03-17T02:48:48.783Z,31.35
2023-03-17T02:49:18.790Z,31.26
2023-03-17T02:49:48.796Z,31.24
2023-03-17T02:50:18.787Z,31.30
2023-03-17T02:50:48.794Z,31.29
2023-03-17T02:51:18.828Z,31.29
2023-03-17T02:51:48.806Z,31.32
2023-03-17T02:52:18.814Z,31.32
2023-03-17T02:52:48.856Z,31.35
2023-03-17T02:53:18.854Z,31.37
2023-03-17T02:53:48.868Z,31.44
2023-03-17T02:54:18.873Z,31.32
2023-03-17T02:54:48.898Z,31.38
2023-03-17T02:55:18.901Z,31.36
2023-03-17T02:55:48.917Z,31.35
2023-03-17T02:56:18.919Z,31.37
2023-03-17T02:56:48.933Z,31.35
2023-03-17T02:57:18.945Z,31.34
2023-03-17T02:57:48.975Z,31.32
2023-03-17T02:58:18.978Z,31.35
2023-03-17T02:58:48.984Z,31.39
2023-03-17T02:59:18.999Z,31.38
2023-03-17T02:59:49.018Z,31.38
2023-03-17T03:00:19.019Z,31.39
2023-03-17T03:00:49.055Z,31.36
2023-03-17T03:01:19.088Z,31.41
2023-03-17T03:01:49.138Z,31.44
2023-03-17T03:02:19.150Z,31.39
2023-03-17T03:02:49.217Z,31.35
2023-03-17T03:03:19.231Z,31.42
2023-03-17T03:03:49.230Z,31.42
2023-03-17T03:04:19.240Z,31.35
2023-03-17T03:04:49.272Z,31.35
2023-03-17T03:05:19.268Z,31.31
2023-03-17T03:05:49.278Z,31.38
2023-03-17T03:06:19.275Z,31.39
2023-03-17T03:06:49.302Z,31.44
2023-03-17T03:07:19.377Z,31.38
2023-03-17T03:07:49.346Z,31.36
2023-03-17T03:08:19.441Z,31.30
2023-03-17T03:08:49.530Z,31.33
2023-03-17T03:09:19.607Z,31.27
2023-03-17T03:09:49.716Z,31.34
2023-03-17T03:10:19.697Z,31.37
2023-03-17T03:10:49.773Z,31.39
2023-03-17T03:11:19.863Z,31.31
2023-03-17T03:11:49.940Z,31.32
2023-03-17T03:12:20.030Z,31.34
2023-03-17T03:12:50.115Z,31.31
2023-03-17T03:13:20.206Z,31.34
2023-03-17T03:13:50.279Z,31.34
2023-03-17T03:14:20.367Z,31.38
2023-03-17T03:14:50.466Z,31.38
2023-03-17T03:15:20.472Z,31.34
2023-03-17T03:15:50.583Z,31.35
2023-03-17T03:16:20.660Z,31.38
2023-03-17T03:16:50.787Z,31.36
2023-03-17T03:17:20.809Z,31.44
2023-03-17T03:17:50.818Z,31.35
2023-03-17T03:18:20.816Z,31.29
2023-03-17T03:18:50.825Z,31.42
2023-03-17T03:19:20.833Z,31.35
2023-03-17T03:19:50.857Z,31.27
2023-03-17T03:20:20.864Z,31.32
2023-03-17T03:20:50.890Z,31.21
2023-03-17T03:21:20.880Z,31.29
2023-03-17T03:21:50.909Z,31.31
2023-03-17T03:22:20.904Z,31.25
2023-03-17T03:22:50.948Z,31.22
2023-03-17T03:23:20.985Z,31.18
2023-03-17T03:23:50.977Z,31.17
2023-03-17T03:24:20.985Z,31.18
2023-03-17T03:24:50.989Z,31.22
2023-03-17T03:25:21.005Z,31.22
2023-03-17T03:25:50.996Z,31.21
2023-03-17T03:26:20.999Z,31.11
2023-03-17T03:26:51.024Z,31.16
2023-03-17T03:27:21.037Z,31.08
2023-03-17T03:27:51.054Z,31.16
2023-03-17T03:28:21.050Z,31.14
2023-03-17T03:28:51.056Z,31.13
2023-03-17T03:29:21.053Z,31.08
2023-03-17T03:29:51.061Z,31.09
2023-03-17T03:30:21.058Z,31.08
2023-03-17T03:30:51.119Z,31.06
2023-03-17T03:31:21.175Z,31.02
2023-03-17T03:31:51.199Z,31.08
2023-03-17T03:32:21.203Z,31.05
2023-03-17T03:32:51.301Z,31.05
2023-03-17T03:33:21.309Z,31.02
2023-03-17T03:33:51.306Z,30.94
2023-03-17T03:34:21.325Z,31.00
2023-03-17T03:34:51.325Z,30.96
2023-03-17T03:35:21.340Z,30.91
2023-03-17T03:35:51.374Z,30.95
2023-03-17T03:36:21.359Z,30.98
2023-03-17T03:36:51.365Z,31.00
2023-03-17T03:37:21.403Z,30.92
2023-03-17T03:37:51.403Z,30.86
2023-03-17T03:38:21.404Z,30.89
2023-03-17T03:38:51.404Z,30.91
2023-03-17T03:39:21.407Z,30.91
2023-03-17T03:39:51.424Z,30.94
2023-03-17T03:40:21.428Z,30.95
2023-03-17T03:40:51.419Z,30.95
2023-03-17T03:41:21.417Z,30.89
2023-03-17T03:41:51.444Z,30.87
2023-03-17T03:42:21.429Z,30.92
2023-03-17T03:42:51.513Z,30.90
2023-03-17T03:43:23.780Z,30.88
2023-03-17T03:43:51.603Z,30.90
2023-03-17T03:44:21.618Z,30.95
2023-03-17T03:44:51.705Z,31.05
2023-03-17T03:45:21.709Z,30.94
2023-03-17T03:45:51.743Z,31.00
2023-03-17T03:46:21.746Z,30.96
2023-03-17T03:46:51.832Z,31.03
2023-03-17T03:47:21.788Z,31.01
2023-03-17T03:47:51.797Z,31.03
2023-03-17T03:48:21.831Z,31.01
2023-03-17T03:48:51.843Z,30.97
2023-03-17T03:49:21.846Z,30.95
2023-03-17T03:49:51.851Z,31.06
2023-03-17T03:50:21.868Z,31.00
2023-03-17T03:50:51.866Z,31.04
2023-03-17T03:51:21.864Z,31.00
2023-03-17T03:51:51.874Z,31.04
2023-03-17T03:52:21.886Z,31.08
2023-03-17T03:52:52.000Z,31.11
2023-03-17T03:53:21.911Z,31.08
2023-03-17T03:53:51.904Z,31.14
2023-03-17T03:54:21.916Z,31.11
2023-03-17T03:54:51.923Z,31.14
2023-03-17T03:55:21.921Z,31.14
2023-03-17T03:55:51.934Z,31.21
2023-03-17T03:56:21.933Z,31.23
2023-03-17T03:56:51.931Z,31.18
2023-03-17T03:57:21.941Z,31.24
2023-03-17T03:57:51.961Z,31.26
2023-03-17T03:58:21.963Z,31.23
2023-03-17T03:58:51.971Z,31.19
2023-03-17T03:59:21.964Z,31.25
2023-03-17T03:59:51.972Z,31.21
2023-03-17T04:00:21.981Z,31.22
2023-03-17T04:00:52.000Z,31.27
2023-03-17T04:01:21.994Z,31.32
2023-03-17T04:01:52.002Z,31.35
2023-03-17T04:02:22.034Z,31.34
2023-03-17T04:02:52.097Z,31.40
2023-03-17T04:03:22.033Z,31.41
2023-03-17T04:03:52.044Z,31.44
2023-03-17T04:04:22.095Z,31.47
2023-03-17T04:04:52.163Z,31.52
2023-03-17T04:05:22.168Z,31.44
2023-03-17T04:05:52.174Z,31.46
2023-03-17T04:06:22.196Z,31.48
2023-03-17T04:06:52.289Z,31.45
2023-03-17T04:07:22.365Z,31.53
2023-03-17T04:08:31.500Z,31.53
2023-03-17T04:09:01.527Z,31.47
2023-03-17T04:09:31.578Z,31.44
2023-03-17T04:10:01.599Z,31.45
2023-03-17T04:10:32.123Z,31.51
2023-03-17T04:11:01.658Z,31.58
2023-03-17T04:11:31.696Z,31.59
2023-03-17T04:12:01.729Z,31.57
2023-03-17T04:12:31.776Z,31.57
2023-03-17T04:13:01.812Z,31.50
2023-03-17T04:13:31.839Z,31.53
2023-03-17T04:14:01.897Z,31.51
2023-03-17T04:14:31.924Z,31.51
2023-03-17T04:15:01.959Z,31.54
2023-03-17T04:15:32.002Z,31.51
2023-03-17T04:16:02.138Z,31.51
2023-03-17T04:16:32.102Z,31.53
2023-03-17T04:17:02.122Z,31.56
2023-03-17T04:17:32.160Z,31.57
2023-03-17T04:18:02.201Z,31.53
2023-03-17T04:18:32.436Z,31.61
2023-03-17T04:19:02.404Z,31.50
2023-03-17T04:19:32.384Z,31.56
2023-03-17T04:20:02.465Z,31.51
2023-03-17T04:20:32.987Z,31.49
2023-03-17T04:21:02.629Z,31.57
2023-03-17T04:21:32.728Z,31.54
2023-03-17T04:22:02.788Z,31.56
2023-03-17T04:22:32.894Z,31.57
2023-03-17T04:23:02.983Z,31.60
2023-03-17T04:23:33.053Z,31.56
2023-03-17T04:24:03.156Z,31.55
2023-03-17T04:24:33.204Z,31.47
2023-03-17T04:25:03.293Z,31.45
2023-03-17T04:25:33.380Z,31.50
2023-03-17T04:26:03.463Z,31.50
2023-03-17T04:26:33.543Z,31.47
2023-03-17T04:27:05.863Z,31.50
2023-03-17T04:27:33.735Z,31.53
2023-03-17T04:28:03.814Z,31.48
2023-03-17T04:28:33.898Z,31.51
2023-03-17T04:29:03.981Z,31.51
2023-03-17T04:29:34.074Z,31.48
2023-03-17T04:30:04.153Z,31.48
2023-03-17T04:30:34.238Z,31.53
2023-03-17T04:31:04.318Z,31.50
2023-03-17T04:31:34.466Z,31.56
2023-03-17T04:32:04.465Z,31.56
2023-03-17T04:32:34.635Z,31.54
2023-03-17T04:33:04.657Z,31.57
2023-03-17T04:33:34.613Z,31.56
2023-03-17T04:34:04.697Z,31.45
2023-03-17T04:34:34.781Z,31.50
2023-03-17T04:35:04.863Z,31.50
2023-03-17T04:35:35.026Z,31.48
2023-03-17T04:36:05.232Z,31.55
2023-03-17T04:36:35.074Z,31.57
2023-03-17T04:37:05.144Z,31.52
2023-03-17T04:37:35.227Z,31.48
2023-03-17T04:38:05.307Z,31.55
2023-03-17T04:38:35.396Z,31.56
2023-03-17T04:39:05.481Z,31.55
2023-03-17T04:39:35.597Z,31.62
2023-03-17T04:40:05.662Z,31.56
2023-03-17T04:40:35.780Z,31.53
2023-03-17T04:41:05.838Z,31.49
2023-03-17T04:41:35.909Z,31.49
2023-03-17T04:42:06.004Z,31.46
2023-03-17T04:42:36.095Z,31.47
2023-03-17T04:43:06.174Z,31.49
2023-03-17T04:43:36.255Z,31.48
2023-03-17T04:44:06.325Z,31.55
2023-03-17T04:44:36.417Z,31.52
2023-03-17T04:45:06.514Z,31.50
2023-03-17T04:45:36.663Z,31.50
2023-03-17T04:46:06.737Z,31.52
2023-03-17T04:46:36.718Z,31.53
2023-03-17T04:47:06.802Z,31.52
2023-03-17T04:47:36.896Z,31.55
2023-03-17T04:48:06.978Z,31.46
2023-03-17T04:48:37.064Z,31.50
2023-03-17T04:49:07.143Z,31.53
2023-03-17T04:49:37.222Z,31.49
2023-03-17T04:50:07.306Z,31.45
2023-03-17T04:50:37.392Z,31.49
2023-03-17T04:51:09.226Z,31.43
2023-03-17T04:51:37.494Z,31.43
2023-03-17T04:52:07.570Z,31.44
2023-03-17T04:52:37.657Z,31.46
2023-03-17T04:53:07.738Z,31.37
2023-03-17T04:53:37.824Z,31.42
2023-03-17T04:54:07.893Z,31.34
2023-03-17T04:54:37.978Z,31.35
2023-03-17T04:55:08.097Z,31.37
2023-03-17T04:55:38.163Z,31.38
2023-03-17T04:56:08.245Z,31.38
2023-03-17T04:56:38.320Z,31.37
2023-03-17T04:57:08.392Z,31.44
2023-03-17T04:57:38.472Z,31.38
2023-03-17T04:58:10.357Z,31.38
2023-03-17T04:58:38.608Z,31.39
2023-03-17T04:59:08.691Z,31.38
2023-03-17T04:59:38.776Z,31.40
2023-03-17T05:00:08.872Z,31.39
2023-03-17T05:00:38.985Z,31.38
2023-03-17T05:01:09.093Z,31.35
2023-03-17T05:01:39.383Z,31.43
2023-03-17T05:02:09.119Z,31.36
2023-03-17T05:02:39.343Z,31.40
2023-03-17T05:03:24.100Z,31.39
2023-03-17T05:03:39.304Z,31.37
2023-03-17T05:04:11.196Z,31.40
2023-03-17T05:04:39.486Z,31.39
2023-03-17T05:05:09.570Z,31.35
2023-03-17T05:05:39.665Z,31.47
2023-03-17T05:06:09.756Z,31.50
2023-03-17T05:06:39.834Z,31.47
2023-03-17T05:07:09.968Z,31.48
2023-03-17T05:07:40.028Z,31.51
2023-03-17T05:08:10.092Z,31.48
2023-03-17T05:08:40.135Z,31.51
2023-03-17T05:09:10.172Z,31.53
2023-03-17T05:09:40.218Z,31.54
2023-03-17T05:10:10.271Z,31.57
2023-03-17T05:10:40.293Z,31.57
2023-03-17T05:11:10.318Z,31.63
2023-03-17T05:11:40.372Z,31.63
2023-03-17T05:12:10.410Z,31.67
2023-03-17T05:12:40.443Z,31.69
2023-03-17T05:13:10.485Z,31.73
2023-03-17T05:13:40.531Z,31.72
2023-03-17T05:14:10.588Z,31.73
2023-03-17T05:14:40.610Z,31.75
2023-03-17T05:15:10.670Z,31.79
2023-03-17T05:15:40.700Z,31.75
2023-03-17T05:16:10.797Z,31.75
2023-03-17T05:16:40.916Z,31.72
2023-03-17T05:17:10.869Z,31.79
2023-03-17T05:17:40.923Z,31.75
2023-03-17T05:18:10.950Z,31.79
2023-03-17T05:18:41.033Z,31.76
2023-03-17T05:19:11.124Z,31.76
2023-03-17T05:19:41.201Z,31.76
2023-03-17T05:20:11.306Z,31.74
2023-03-17T05:20:41.364Z,31.72
2023-03-17T05:21:11.458Z,31.72
2023-03-17T05:21:41.550Z,31.70
2023-03-17T05:22:11.629Z,31.73
2023-03-17T05:22:41.709Z,31.69
2023-03-17T05:23:11.794Z,31.70
2023-03-17T05:23:41.895Z,31.68
2023-03-17T05:24:11.964Z,31.65
2023-03-17T05:24:42.053Z,31.63
2023-03-17T05:25:12.129Z,31.59
2023-03-17T05:25:42.239Z,31.58
2023-03-17T05:26:12.302Z,31.67
2023-03-17T05:26:42.375Z,31.67
2023-03-17T05:27:12.465Z,31.67
2023-03-17T05:27:42.549Z,31.68
2023-03-17T05:28:12.634Z,31.70
2023-03-17T05:28:42.718Z,31.70
2023-03-17T05:29:12.789Z,31.74
2023-03-17T05:29:42.878Z,31.78
2023-03-17T05:30:12.969Z,31.73
2023-03-17T05:30:43.117Z,31.68
2023-03-17T05:31:13.127Z,31.68
2023-03-17T05:31:43.088Z,31.68
2023-03-17T05:32:13.172Z,31.67
2023-03-17T05:32:43.294Z,31.71
2023-03-17T05:33:13.253Z,31.71
2023-03-17T05:33:43.337Z,31.74
2023-03-17T05:34:13.413Z,31.75
2023-03-17T05:34:43.492Z,31.77
2023-03-17T05:35:13.603Z,31.78
2023-03-17T05:35:43.717Z,31.77
2023-03-17T05:36:13.670Z,31.86
2023-03-17T05:36:43.746Z,31.80
2023-03-17T05:37:13.830Z,31.78
2023-03-17T05:37:43.918Z,31.86
2023-03-17T05:38:14.002Z,31.86
2023-03-17T05:38:44.080Z,31.81
2023-03-17T05:39:14.726Z,31.84
2023-03-17T05:39:44.260Z,31.90
2023-03-17T05:40:14.370Z,31.90
2023-03-17T05:40:44.458Z,31.94
2023-03-17T05:41:14.551Z,31.95
2023-03-17T05:41:44.611Z,32.00
2023-03-17T05:42:14.724Z,31.97
2023-03-17T05:42:44.781Z,31.99
2023-03-17T05:43:14.859Z,31.96
2023-03-17T05:43:44.946Z,31.88
2023-03-17T05:44:15.026Z,32.00
2023-03-17T05:44:45.119Z,31.94
2023-03-17T05:45:15.215Z,32.12
2023-03-17T05:45:45.305Z,32.23
2023-03-17T05:46:15.473Z,32.24
2023-03-17T05:46:45.384Z,32.29
2023-03-17T05:47:15.463Z,32.41
2023-03-17T05:47:45.550Z,32.23
2023-03-17T05:48:15.639Z,32.31
2023-03-17T05:48:45.712Z,32.25
2023-03-17T05:49:15.800Z,32.27
2023-03-17T05:49:45.881Z,32.26
2023-03-17T05:50:16.001Z,32.24
2023-03-17T05:50:46.068Z,32.21
2023-03-17T05:51:16.153Z,32.09
2023-03-17T05:51:46.236Z,32.22
2023-03-17T05:52:16.316Z,32.21
2023-03-17T05:52:46.392Z,32.12
2023-03-17T05:53:16.485Z,32.17
2023-03-17T05:53:46.563Z,32.02
2023-03-17T05:54:16.647Z,32.05
2023-03-17T05:54:46.723Z,32.01
2023-03-17T05:55:16.827Z,31.95
2023-03-17T05:55:46.906Z,31.91
2023-03-17T05:56:17.011Z,31.96
2023-03-17T05:56:47.074Z,31.86
2023-03-17T05:57:17.161Z,31.83
2023-03-17T05:57:47.245Z,31.78
2023-03-17T05:58:17.318Z,31.79
2023-03-17T05:58:47.420Z,31.81
2023-03-17T05:59:17.493Z,31.70
2023-03-17T05:59:47.573Z,31.73
2023-03-17T06:00:17.690Z,31.63
2023-03-17T06:00:47.652Z,31.63
2023-03-17T06:01:17.736Z,31.61
2023-03-17T06:01:47.837Z,31.63
2023-03-17T06:02:17.917Z,31.65
2023-03-17T06:02:47.998Z,31.60
2023-03-17T06:03:18.122Z,31.60
2023-03-17T06:03:48.200Z,31.65
2023-03-17T06:04:18.156Z,31.58
2023-03-17T06:04:48.225Z,31.62
2023-03-17T06:05:18.312Z,31.67
2023-03-17T06:05:48.406Z,31.52
2023-03-17T06:06:18.483Z,31.52
2023-03-17T06:06:48.585Z,31.53
2023-03-17T06:07:18.649Z,31.49
2023-03-17T06:07:54.829Z,31.47
2023-03-17T06:08:18.785Z,31.49
2023-03-17T06:08:48.821Z,31.46
2023-03-17T06:09:18.859Z,31.45
2023-03-17T06:09:48.906Z,31.40
2023-03-17T06:10:18.952Z,31.40
2023-03-17T06:10:48.991Z,31.37
2023-03-17T06:11:19.022Z,31.43
2023-03-17T06:11:49.086Z,31.34
2023-03-17T06:12:19.098Z,31.30
2023-03-17T06:12:49.150Z,31.39
2023-03-17T06:13:19.179Z,31.34
2023-03-17T06:13:49.242Z,31.32
2023-03-17T06:14:19.268Z,31.32
2023-03-17T06:14:49.317Z,31.38
2023-03-17T06:15:19.357Z,31.27
2023-03-17T06:15:49.466Z,31.34
2023-03-17T06:16:19.537Z,31.18
2023-03-17T06:16:49.584Z,31.19
2023-03-17T06:17:19.629Z,31.26
2023-03-17T06:17:49.714Z,31.19
2023-03-17T06:18:19.817Z,31.18
2023-03-17T06:18:49.877Z,31.19
2023-03-17T06:19:19.968Z,31.18
2023-03-17T06:19:50.053Z,31.21
2023-03-17T06:20:20.141Z,31.16
2023-03-17T06:20:50.225Z,31.12
2023-03-17T06:21:20.308Z,31.11
2023-03-17T06:21:50.401Z,31.11
2023-03-17T06:22:20.468Z,31.08
2023-03-17T06:23:03.498Z,31.04
2023-03-17T06:23:20.640Z,31.04
2023-03-17T06:23:50.722Z,30.96
2023-03-17T06:24:20.797Z,30.94
2023-03-17T06:24:50.893Z,30.95
2023-03-17T06:25:20.976Z,30.93
2023-03-17T06:25:51.098Z,30.94
2023-03-17T06:26:21.050Z,30.94
2023-03-17T06:26:51.131Z,30.96
2023-03-17T06:27:21.258Z,31.02
2023-03-17T06:27:51.305Z,31.06